createdAt,value
2024-02-29T00:00:34.090Z,96080.00
2024-02-29T00:01:34.074Z,96080.00
2024-02-29T00:02:34.061Z,96081.00
2024-02-29T00:03:34.132Z,96083.00
2024-02-29T00:04:34.167Z,96083.00
2024-02-29T00:05:34.182Z,96085.00
2024-02-29T00:06:34.229Z,96086.00
2024-02-29T00:07:34.241Z,96087.00
2024-02-29T00:08:34.287Z,96086.00
2024-02-29T00:09:34.378Z,96086.00
2024-02-29T00:10:34.364Z,96086.00
2024-02-29T00:11:34.471Z,96086.00
2024-02-29T00:12:34.439Z,96086.00
2024-02-29T00:13:34.469Z,96086.00
2024-02-29T00:14:34.534Z,96083.00
2024-02-29T00:15:34.689Z,96082.00
2024-02-29T00:16:34.617Z,96081.00
2024-02-29T00:17:34.772Z,96079.00
2024-02-29T00:18:34.761Z,96079.00
2024-02-29T00:19:34.733Z,96080.00
2024-02-29T00:20:34.791Z,96081.00
2024-02-29T00:21:34.877Z,96079.00
2024-02-29T00:22:34.881Z,96079.00
2024-02-29T00:23:34.931Z,96079.00
2024-02-29T00:24:37.411Z,96078.00
2024-02-29T00:25:35.057Z,96078.00
2024-02-29T00:26:35.084Z,96076.00
2024-02-29T00:27:35.265Z,96075.00
2024-02-29T00:28:35.186Z,96074.00
2024-02-29T00:29:35.213Z,96071.00
2024-02-29T00:30:35.336Z,96071.00
2024-02-29T00:31:35.302Z,96070.00
2024-02-29T00:32:35.585Z,96068.00
2024-02-29T00:33:35.413Z,96069.00
2024-02-29T00:34:35.406Z,96070.00
2024-02-29T00:35:35.443Z,96068.00
2024-02-29T00:36:35.596Z,96068.00
2024-02-29T00:37:35.513Z,96069.00
2024-02-29T00:38:35.541Z,96070.00
2024-02-29T00:39:35.596Z,96069.00
2024-02-29T00:40:35.599Z,96070.00
2024-02-29T00:41:35.622Z,96069.00
2024-02-29T00:42:35.656Z,96065.00
2024-02-29T00:43:35.666Z,96066.00
2024-02-29T00:44:35.653Z,96063.00
2024-02-29T00:45:35.710Z,96061.00
2024-02-29T00:46:35.675Z,96061.00
2024-02-29T00:47:35.772Z,96057.00
2024-02-29T00:48:35.763Z,96058.00
2024-02-29T00:49:35.767Z,96056.00
2024-02-29T00:50:35.792Z,96055.00
2024-02-29T00:51:35.873Z,96052.00
2024-02-29T00:52:35.831Z,96050.00
2024-02-29T00:53:35.879Z,96049.00
2024-02-29T00:54:35.977Z,96047.00
2024-02-29T00:55:36.013Z,96046.00
2024-02-29T00:56:36.078Z,96043.00
2024-02-29T00:57:36.163Z,96042.00
2024-02-29T00:58:36.231Z,96038.00
2024-02-29T00:59:36.288Z,96038.00
2024-02-29T01:00:36.437Z,96038.00
2024-02-29T01:01:36.491Z,96033.00
2024-02-29T01:02:36.500Z,96031.00
2024-02-29T01:03:36.607Z,96032.00
2024-02-29T01:04:36.615Z,96030.00
2024-02-29T01:05:36.674Z,96027.00
2024-02-29T01:06:36.747Z,96024.00
2024-02-29T01:07:36.735Z,96024.00
2024-02-29T01:08:36.871Z,96024.00
2024-02-29T01:09:36.869Z,96024.00
2024-02-29T01:10:36.850Z,96023.00
2024-02-29T01:11:36.880Z,96025.00
2024-02-29T01:12:36.957Z,96025.00
2024-02-29T01:13:36.971Z,96021.00
2024-02-29T01:14:37.014Z,96021.00
2024-02-29T01:15:37.056Z,96022.00
2024-02-29T01:16:37.083Z,96019.00
2024-02-29T01:17:37.113Z,96017.00
2024-02-29T01:18:37.168Z,96017.00
2024-02-29T01:19:37.167Z,96013.00
2024-02-29T01:20:37.204Z,96012.00
2024-02-29T01:21:37.269Z,96013.00
2024-02-29T01:22:37.256Z,96011.00
2024-02-29T01:23:37.272Z,96011.00
2024-02-29T01:24:37.336Z,96013.00
2024-02-29T01:25:37.332Z,96014.00
2024-02-29T01:26:37.360Z,96013.00
2024-02-29T01:27:37.493Z,96012.00
2024-02-29T01:28:37.415Z,96012.00
2024-02-29T01:29:37.434Z,96012.00
2024-02-29T01:30:37.479Z,96008.00
2024-02-29T01:31:37.476Z,96008.00
2024-02-29T01:32:38.043Z,96009.00
2024-02-29T01:33:37.570Z,96008.00
2024-02-29T01:34:58.546Z,96008.00
2024-02-29T01:35:37.555Z,96006.00
2024-02-29T01:36:37.555Z,96006.00
2024-02-29T01:37:37.543Z,96004.00
2024-02-29T01:38:37.611Z,96002.00
2024-02-29T01:39:37.747Z,96000.00
2024-02-29T01:40:37.543Z,95996.00
2024-02-29T01:41:37.527Z,95994.00
2024-02-29T01:42:37.551Z,95994.00
2024-02-29T01:43:37.527Z,95993.00
2024-02-29T01:44:37.558Z,95991.00
2024-02-29T01:45:37.558Z,95992.00
2024-02-29T01:46:37.530Z,95992.00
2024-02-29T01:47:37.562Z,95992.00
2024-02-29T01:48:37.585Z,95990.00
2024-02-29T01:49:37.533Z,95989.00
2024-02-29T01:50:37.548Z,95988.00
2024-02-29T01:51:37.582Z,95987.00
2024-02-29T01:52:37.558Z,95985.00
2024-02-29T01:53:37.557Z,95987.00
2024-02-29T01:54:37.579Z,95984.00
2024-02-29T01:55:37.544Z,95984.00
2024-02-29T01:56:37.550Z,95983.00
2024-02-29T01:57:37.565Z,95982.00
2024-02-29T01:58:37.556Z,95981.00
2024-02-29T01:59:37.554Z,95979.00
2024-02-29T02:00:37.655Z,95982.00
2024-02-29T02:01:37.612Z,95981.00
2024-02-29T02:02:37.557Z,95981.00
2024-02-29T02:03:37.583Z,95981.00
2024-02-29T02:04:37.570Z,95982.00
2024-02-29T02:05:37.561Z,95983.00
2024-02-29T02:06:37.589Z,95981.00
2024-02-29T02:07:37.555Z,95980.00
2024-02-29T02:08:37.673Z,95978.00
2024-02-29T02:09:37.602Z,95976.00
2024-02-29T02:10:37.572Z,95975.00
2024-02-29T02:11:37.580Z,95974.00
2024-02-29T02:12:37.793Z,95973.00
2024-02-29T02:13:37.566Z,95972.00
2024-02-29T02:14:37.566Z,95973.00
2024-02-29T02:15:37.590Z,95972.00
2024-02-29T02:16:37.565Z,95970.00
2024-02-29T02:17:37.592Z,95967.00
2024-02-29T02:18:37.609Z,95964.00
2024-02-29T02:19:37.561Z,95960.00
2024-02-29T02:20:37.563Z,95960.00
2024-02-29T02:21:37.579Z,95959.00
2024-02-29T02:22:37.558Z,95957.00
2024-02-29T02:23:37.572Z,95954.00
2024-02-29T02:24:37.605Z,95952.00
2024-02-29T02:25:37.564Z,95951.00
2024-02-29T02:26:37.570Z,95951.00
2024-02-29T02:27:37.601Z,95952.00
2024-02-29T02:28:37.566Z,95952.00
2024-02-29T02:29:37.556Z,95954.00
2024-02-29T02:30:37.587Z,95954.00
2024-02-29T02:31:37.564Z,95953.00
2024-02-29T02:32:37.594Z,95957.00
2024-02-29T02:33:37.570Z,95957.00
2024-02-29T02:34:37.575Z,95957.00
2024-02-29T02:35:37.563Z,95956.00
2024-02-29T02:36:37.702Z,95955.00
2024-02-29T02:37:37.650Z,95955.00
2024-02-29T02:38:37.724Z,95953.00
2024-02-29T02:39:37.815Z,95953.00
2024-02-29T02:40:37.855Z,95949.00
2024-02-29T02:41:37.913Z,95951.00
2024-02-29T02:42:38.040Z,95950.00
2024-02-29T02:43:38.050Z,95949.00
2024-02-29T02:44:38.133Z,95949.00
2024-02-29T02:45:38.209Z,95951.00
2024-02-29T02:46:38.255Z,95952.00
2024-02-29T02:47:38.376Z,95951.00
2024-02-29T02:48:38.418Z,95948.00
2024-02-29T02:49:38.470Z,95947.00
2024-02-29T02:50:38.607Z,95946.00
2024-02-29T02:51:38.615Z,95946.00
2024-02-29T02:52:38.655Z,95947.00
2024-02-29T02:53:38.708Z,95944.00
2024-02-29T02:54:38.793Z,95945.00
2024-02-29T02:55:38.837Z,95942.00
2024-02-29T02:56:38.901Z,95942.00
2024-02-29T02:57:38.995Z,95939.00
2024-02-29T02:58:39.065Z,95938.00
2024-02-29T02:59:39.114Z,95941.00
2024-02-29T03:00:39.361Z,95940.00
2024-02-29T03:01:39.272Z,95940.00
2024-02-29T03:02:39.317Z,95938.00
2024-02-29T03:03:39.394Z,95937.00
2024-02-29T03:04:39.457Z,95935.00
2024-02-29T03:05:39.502Z,95934.00
2024-02-29T03:06:39.597Z,95930.00
2024-02-29T03:07:39.935Z,95932.00
2024-02-29T03:08:39.690Z,95930.00
2024-02-29T03:09:39.775Z,95932.00
2024-02-29T03:10:39.819Z,95932.00
2024-02-29T03:11:39.882Z,95932.00
2024-02-29T03:12:40.041Z,95931.00
2024-02-29T03:13:39.983Z,95928.00
2024-02-29T03:14:40.064Z,95928.00
2024-02-29T03:15:40.149Z,95926.00
2024-02-29T03:16:40.760Z,95925.00
2024-02-29T03:17:40.283Z,95926.00
2024-02-29T03:18:40.424Z,95924.00
2024-02-29T03:19:40.445Z,95925.00
2024-02-29T03:20:40.476Z,95926.00
2024-02-29T03:21:40.623Z,95924.00
2024-02-29T03:22:40.632Z,95924.00
2024-02-29T03:23:40.706Z,95924.00
2024-02-29T03:24:40.815Z,95923.00
2024-02-29T03:25:40.843Z,95921.00
2024-02-29T03:26:40.898Z,95922.00
2024-02-29T03:27:40.949Z,95919.00
2024-02-29T03:28:41.036Z,95917.00
2024-02-29T03:29:41.057Z,95919.00
2024-02-29T03:30:41.180Z,95917.00
2024-02-29T03:31:41.205Z,95918.00
2024-02-29T03:32:41.267Z,95916.00
2024-02-29T03:33:41.353Z,95913.00
2024-02-29T03:34:41.417Z,95914.00
2024-02-29T03:35:41.496Z,95912.00
2024-02-29T03:36:41.584Z,95913.00
2024-02-29T03:37:41.596Z,95911.00
2024-02-29T03:38:41.676Z,95909.00
2024-02-29T03:39:41.742Z,95911.00
2024-02-29T03:40:45.763Z,95908.00
2024-02-29T03:41:41.778Z,95907.00
2024-02-29T03:42:41.814Z,95907.00
2024-02-29T03:43:41.772Z,95909.00
2024-02-29T03:44:41.761Z,95909.00
2024-02-29T03:45:41.777Z,95911.00
2024-02-29T03:46:41.766Z,95910.00
2024-02-29T03:47:41.816Z,95911.00
2024-02-29T03:48:41.799Z,95909.00
2024-02-29T03:49:41.769Z,95906.00
2024-02-29T03:50:41.770Z,95906.00
2024-02-29T03:51:41.794Z,95904.00
2024-02-29T03:52:41.784Z,95904.00
2024-02-29T03:53:41.786Z,95905.00
2024-02-29T03:54:41.877Z,95904.00
2024-02-29T03:55:41.791Z,95905.00
2024-02-29T03:56:41.767Z,95904.00
2024-02-29T03:57:41.842Z,95903.00
2024-02-29T03:58:41.765Z,95901.00
2024-02-29T03:59:41.775Z,95901.00
2024-02-29T04:00:41.819Z,95902.00
2024-02-29T04:01:41.819Z,95901.00
2024-02-29T04:02:41.776Z,95900.00
2024-02-29T04:03:41.921Z,95899.00
2024-02-29T04:04:41.900Z,95901.00
2024-02-29T04:05:41.987Z,95896.00
2024-02-29T04:06:42.103Z,95899.00
2024-02-29T04:07:42.088Z,95895.00
2024-02-29T04:08:42.155Z,95896.00
2024-02-29T04:09:42.257Z,95896.00
2024-02-29T04:10:42.280Z,95895.00
2024-02-29T04:11:42.341Z,95896.00
2024-02-29T04:12:42.432Z,95896.00
2024-02-29T04:13:42.463Z,95896.00
2024-02-29T04:14:42.522Z,95894.00
2024-02-29T04:15:42.735Z,95897.00
2024-02-29T04:16:42.622Z,95897.00
2024-02-29T04:17:42.728Z,95896.00
2024-02-29T04:18:42.789Z,95892.00
2024-02-29T04:19:42.845Z,95889.00
2024-02-29T04:20:42.991Z,95886.00
2024-02-29T04:21:42.969Z,95885.00
2024-02-29T04:22:43.024Z,95886.00
2024-02-29T04:23:43.105Z,95884.00
2024-02-29T04:24:43.161Z,95883.00
2024-02-29T04:25:43.226Z,95885.00
2024-02-29T04:26:43.279Z,95886.00
2024-02-29T04:27:43.423Z,95887.00
2024-02-29T04:28:50.921Z,95886.00
2024-02-29T04:29:50.909Z,95888.00
2024-02-29T04:30:50.967Z,95886.00
2024-02-29T04:31:58.567Z,95884.00
2024-02-29T04:32:58.625Z,95885.00
2024-02-29T04:33:58.603Z,95885.00
2024-02-29T04:34:58.564Z,95884.00
2024-02-29T04:35:58.662Z,95883.00
2024-02-29T04:36:58.590Z,95884.00
2024-02-29T04:37:58.570Z,95881.00
2024-02-29T04:38:58.584Z,95882.00
2024-02-29T04:39:58.597Z,95881.00
2024-02-29T04:40:58.587Z,95883.00
2024-02-29T04:41:58.599Z,95886.00
2024-02-29T04:42:58.610Z,95886.00
2024-02-29T04:43:58.573Z,95886.00
2024-02-29T04:44:58.573Z,95886.00
2024-02-29T04:45:58.631Z,95887.00
2024-02-29T04:46:58.576Z,95888.00
2024-02-29T04:47:58.643Z,95886.00
2024-02-29T04:48:58.599Z,95885.00
2024-02-29T04:49:58.581Z,95883.00
2024-02-29T04:50:58.575Z,95879.00
2024-02-29T04:51:58.594Z,95879.00
2024-02-29T04:52:58.591Z,95879.00
2024-02-29T04:53:58.596Z,95878.00
2024-02-29T04:54:58.659Z,95877.00
2024-02-29T04:55:58.603Z,95876.00
2024-02-29T04:56:58.586Z,95875.00
2024-02-29T04:57:58.610Z,95874.00
2024-02-29T04:58:58.588Z,95875.00
2024-02-29T04:59:58.593Z,95873.00
2024-02-29T05:00:58.689Z,95870.00
2024-02-29T05:01:58.659Z,95870.00
2024-02-29T05:02:58.609Z,95867.00
2024-02-29T05:03:58.640Z,95867.00
2024-02-29T05:04:58.608Z,95867.00
2024-02-29T05:05:58.614Z,95868.00
2024-02-29T05:06:58.639Z,95870.00
2024-02-29T05:07:58.627Z,95867.00
2024-02-29T05:08:58.627Z,95868.00
2024-02-29T05:09:58.651Z,95869.00
2024-02-29T05:10:58.765Z,95868.00
2024-02-29T05:11:58.733Z,95870.00
2024-02-29T05:12:58.801Z,95866.00
2024-02-29T05:13:58.839Z,95868.00
2024-02-29T05:14:58.902Z,95866.00
2024-02-29T05:15:58.963Z,95865.00
2024-02-29T05:16:58.983Z,95866.00
2024-02-29T05:17:59.071Z,95864.00
2024-02-29T05:18:59.123Z,95865.00
2024-02-29T05:19:59.145Z,95865.00
2024-02-29T05:20:59.175Z,95862.00
2024-02-29T05:21:59.312Z,95862.00
2024-02-29T05:22:59.300Z,95860.00
2024-02-29T05:23:59.373Z,95862.00
2024-02-29T05:24:59.519Z,95863.00
2024-02-29T05:25:59.523Z,95866.00
2024-02-29T05:26:59.663Z,95867.00
2024-02-29T05:27:59.718Z,95866.00
2024-02-29T05:28:59.681Z,95864.00
2024-02-29T05:29:59.764Z,95864.00
2024-02-29T05:30:59.878Z,95863.00
2024-02-29T05:31:59.911Z,95864.00
2024-02-29T05:33:00.017Z,95863.00
2024-02-29T05:34:00.100Z,95863.00
2024-02-29T05:35:00.129Z,95860.00
2024-02-29T05:36:00.195Z,95859.00
2024-02-29T05:37:00.284Z,95860.00
2024-02-29T05:38:00.341Z,95860.00
2024-02-29T05:39:00.366Z,95859.00
2024-02-29T05:40:00.440Z,95861.00
2024-02-29T05:41:00.443Z,95863.00
2024-02-29T05:42:00.488Z,95861.00
2024-02-29T05:43:00.579Z,95862.00
2024-02-29T05:44:00.556Z,95861.00
2024-02-29T05:45:00.588Z,95863.00
2024-02-29T05:46:00.641Z,95862.00
2024-02-29T05:47:00.672Z,95861.00
2024-02-29T05:48:00.855Z,95862.00
2024-02-29T05:49:00.842Z,95860.00
2024-02-29T05:50:00.798Z,95861.00
2024-02-29T05:51:00.818Z,95861.00
2024-02-29T05:52:00.924Z,95862.00
2024-02-29T05:53:00.862Z,95859.00
2024-02-29T05:54:00.908Z,95859.00
2024-02-29T05:55:00.965Z,95860.00
2024-02-29T05:56:00.934Z,95860.00
2024-02-29T05:57:04.296Z,95860.00
2024-02-29T05:58:01.018Z,95860.00
2024-02-29T05:59:00.944Z,95860.00
2024-02-29T06:00:00.949Z,95861.00
2024-02-29T06:01:01.034Z,95858.00
2024-02-29T06:02:01.095Z,95862.00
2024-02-29T06:03:00.960Z,95861.00
2024-02-29T06:04:01.102Z,95859.00
2024-02-29T06:05:00.999Z,95856.00
2024-02-29T06:06:00.948Z,95857.00
2024-02-29T06:07:00.985Z,95856.00
2024-02-29T06:08:01.002Z,95857.00
2024-02-29T06:09:00.961Z,95858.00
2024-02-29T06:10:00.992Z,95859.00
2024-02-29T06:11:00.975Z,95861.00
2024-02-29T06:12:00.956Z,95860.00
2024-02-29T06:13:01.054Z,95861.00
2024-02-29T06:14:00.981Z,95862.00
2024-02-29T06:15:00.967Z,95863.00
2024-02-29T06:16:00.976Z,95862.00
2024-02-29T06:17:00.968Z,95862.00
2024-02-29T06:18:01.022Z,95861.00
2024-02-29T06:19:01.019Z,95861.00
2024-02-29T06:20:00.963Z,95861.00
2024-02-29T06:21:00.968Z,95862.00
2024-02-29T06:22:00.991Z,95861.00
2024-02-29T06:23:01.876Z,95862.00
2024-02-29T06:24:00.967Z,95862.00
2024-02-29T06:25:01.007Z,95863.00
2024-02-29T06:26:00.954Z,95863.00
2024-02-29T06:27:00.948Z,95865.00
2024-02-29T06:28:00.993Z,95869.00
2024-02-29T06:29:00.993Z,95867.00
2024-02-29T06:30:00.965Z,95867.00
2024-02-29T06:31:01.004Z,95868.00
2024-02-29T06:32:00.993Z,95868.00
2024-02-29T06:33:01.092Z,95864.00
2024-02-29T06:34:01.096Z,95864.00
2024-02-29T06:35:01.047Z,95865.00
2024-02-29T06:36:01.067Z,95865.00
2024-02-29T06:37:01.109Z,95865.00
2024-02-29T06:38:01.108Z,95865.00
2024-02-29T06:39:01.126Z,95865.00
2024-02-29T06:40:01.289Z,95864.00
2024-02-29T06:41:01.185Z,95864.00
2024-02-29T06:42:01.231Z,95864.00
2024-02-29T06:43:01.284Z,95864.00
2024-02-29T06:44:01.246Z,95865.00
2024-02-29T06:45:01.254Z,95865.00
2024-02-29T06:46:01.385Z,95862.00
2024-02-29T06:47:01.282Z,95861.00
2024-02-29T06:48:01.364Z,95858.00
2024-02-29T06:49:01.347Z,95859.00
2024-02-29T06:50:01.426Z,95859.00
2024-02-29T06:51:01.384Z,95858.00
2024-02-29T06:52:01.435Z,95858.00
2024-02-29T06:53:01.423Z,95859.00
2024-02-29T06:54:01.461Z,95861.00
2024-02-29T06:55:01.512Z,95862.00
2024-02-29T06:56:01.504Z,95865.00
2024-02-29T06:57:01.539Z,95862.00
2024-02-29T06:58:01.590Z,95863.00
2024-02-29T06:59:01.556Z,95861.00
2024-02-29T07:00:01.575Z,95859.00
2024-02-29T07:01:01.667Z,95857.00
2024-02-29T07:02:01.656Z,95857.00
2024-02-29T07:03:01.666Z,95852.00
2024-02-29T07:04:01.739Z,95855.00
2024-02-29T07:05:01.716Z,95855.00
2024-02-29T07:06:01.721Z,95852.00
2024-02-29T07:07:01.819Z,95852.00
2024-02-29T07:08:01.771Z,95852.00
2024-02-29T07:09:01.785Z,95852.00
2024-02-29T07:10:01.931Z,95855.00
2024-02-29T07:11:02.558Z,95854.00
2024-02-29T07:12:01.852Z,95853.00
2024-02-29T07:13:01.992Z,95848.00
2024-02-29T07:14:01.927Z,95848.00
2024-02-29T07:15:01.966Z,95849.00
2024-02-29T07:16:02.025Z,95849.00
2024-02-29T07:17:02.079Z,95850.00
2024-02-29T07:18:02.183Z,95849.00
2024-02-29T07:19:02.252Z,95850.00
2024-02-29T07:20:02.343Z,95851.00
2024-02-29T07:21:02.306Z,95847.00
2024-02-29T07:22:02.397Z,95849.00
2024-02-29T07:23:02.455Z,95846.00
2024-02-29T07:24:02.520Z,95845.00
2024-02-29T07:25:02.610Z,95843.00
2024-02-29T07:26:02.666Z,95844.00
2024-02-29T07:27:02.781Z,95844.00
2024-02-29T07:28:02.820Z,95842.00
2024-02-29T07:29:02.853Z,95843.00
2024-02-29T07:30:02.924Z,95842.00
2024-02-29T07:31:03.087Z,95843.00
2024-02-29T07:32:03.054Z,95843.00
2024-02-29T07:33:03.166Z,95842.00
2024-02-29T07:34:03.274Z,95842.00
2024-02-29T07:35:03.228Z,95841.00
2024-02-29T07:36:03.310Z,95840.00
2024-02-29T07:37:03.394Z,95838.00
2024-02-29T07:38:03.397Z,95835.00
2024-02-29T07:39:03.461Z,95832.00
2024-02-29T07:40:03.608Z,95830.00
2024-02-29T07:41:03.553Z,95829.00
2024-02-29T07:42:03.588Z,95827.00
2024-02-29T07:43:03.618Z,95827.00
2024-02-29T07:44:03.607Z,95827.00
2024-02-29T07:45:03.636Z,95826.00
2024-02-29T07:46:03.679Z,95826.00
2024-02-29T07:47:03.626Z,95823.00
2024-02-29T07:48:03.677Z,95823.00
2024-02-29T07:49:03.775Z,95821.00
2024-02-29T07:50:03.698Z,95820.00
2024-02-29T07:51:03.714Z,95820.00
2024-02-29T07:52:03.752Z,95818.00
2024-02-29T07:53:03.744Z,95817.00
2024-02-29T07:54:03.767Z,95815.00
2024-02-29T07:55:03.838Z,95812.00
2024-02-29T07:56:03.810Z,95811.00
2024-02-29T07:57:03.858Z,95808.00
2024-02-29T07:58:03.905Z,95806.00
2024-02-29T07:59:03.917Z,95804.00
2024-02-29T08:00:03.963Z,95802.00
2024-02-29T08:01:04.106Z,95801.00
2024-02-29T08:02:04.952Z,95805.00
2024-02-29T08:03:04.040Z,95805.00
2024-02-29T08:04:04.165Z,95806.00
2024-02-29T08:05:04.113Z,95802.00
2024-02-29T08:06:04.139Z,95797.00
2024-02-29T08:07:04.202Z,95795.00
2024-02-29T08:08:04.224Z,95792.00
2024-02-29T08:09:04.907Z,95790.00
2024-02-29T08:10:04.356Z,95786.00
2024-02-29T08:11:04.429Z,95788.00
2024-02-29T08:12:04.478Z,95787.00
2024-02-29T08:13:04.502Z,95788.00
2024-02-29T08:14:04.445Z,95787.00
2024-02-29T08:15:04.464Z,95788.00
2024-02-29T08:16:04.489Z,95785.00
2024-02-29T08:17:04.459Z,95786.00
2024-02-29T08:18:04.469Z,95784.00
2024-02-29T08:19:04.498Z,95783.00
2024-02-29T08:20:04.456Z,95779.00
2024-02-29T08:21:04.468Z,95778.00
2024-02-29T08:22:04.547Z,95777.00
2024-02-29T08:23:04.484Z,95774.00
2024-02-29T08:24:04.484Z,95770.00
2024-02-29T08:25:04.618Z,95770.00
2024-02-29T08:26:04.496Z,95772.00
2024-02-29T08:27:04.528Z,95771.00
2024-02-29T08:28:04.643Z,95771.00
2024-02-29T08:29:04.618Z,95771.00
2024-02-29T08:30:04.645Z,95770.00
2024-02-29T08:31:04.724Z,95771.00
2024-02-29T08:32:04.713Z,95773.00
2024-02-29T08:33:04.736Z,95775.00
2024-02-29T08:34:04.714Z,95774.00
2024-02-29T08:35:04.682Z,95776.00
2024-02-29T08:36:04.657Z,95776.00
2024-02-29T08:37:04.695Z,95776.00
2024-02-29T08:38:04.674Z,95774.00
2024-02-29T08:39:04.714Z,95772.00
2024-02-29T08:40:04.729Z,95767.00
2024-02-29T08:41:04.750Z,95765.00
2024-02-29T08:42:04.751Z,95764.00
2024-02-29T08:43:04.827Z,95760.00
2024-02-29T08:44:04.786Z,95762.00
2024-02-29T08:45:04.777Z,95759.00
2024-02-29T08:46:04.798Z,95758.00
2024-02-29T08:47:04.804Z,95760.00
2024-02-29T08:48:04.873Z,95761.00
2024-02-29T08:49:04.921Z,95760.00
2024-02-29T08:50:04.927Z,95759.00
2024-02-29T08:51:04.979Z,95758.00
2024-02-29T08:52:05.190Z,95757.00
2024-02-29T08:53:05.090Z,95757.00
2024-02-29T08:54:07.578Z,95754.00
2024-02-29T08:55:05.333Z,95752.00
2024-02-29T08:56:05.333Z,95753.00
2024-02-29T08:57:05.374Z,95752.00
2024-02-29T08:58:05.500Z,95752.00
2024-02-29T08:59:05.449Z,95750.00
2024-02-29T09:00:05.488Z,95750.00
2024-02-29T09:01:05.661Z,95747.00
2024-02-29T09:02:05.648Z,95744.00
2024-02-29T09:03:05.609Z,95743.00
2024-02-29T09:04:05.661Z,95742.00
2024-02-29T09:05:13.231Z,95738.00
2024-02-29T09:06:13.181Z,95736.00
2024-02-29T09:07:13.241Z,95734.00
2024-02-29T09:08:13.185Z,95733.00
2024-02-29T09:09:13.202Z,95729.00
2024-02-29T09:10:13.209Z,95725.00
2024-02-29T09:11:13.219Z,95723.00
2024-02-29T09:12:13.202Z,95723.00
2024-02-29T09:13:20.944Z,95720.00
2024-02-29T09:14:14.200Z,95719.00
2024-02-29T09:15:13.212Z,95717.00
2024-02-29T09:16:13.240Z,95716.00
2024-02-29T09:17:13.220Z,95714.00
2024-02-29T09:18:13.264Z,95714.00
2024-02-29T09:19:13.290Z,95715.00
2024-02-29T09:20:13.231Z,95713.00
2024-02-29T09:21:13.225Z,95716.00
2024-02-29T09:22:13.265Z,95715.00
2024-02-29T09:23:13.220Z,95717.00
2024-02-29T09:24:15.646Z,95715.00
2024-02-29T09:25:13.264Z,95715.00
2024-02-29T09:26:13.227Z,95714.00
2024-02-29T09:27:13.237Z,95714.00
2024-02-29T09:28:13.294Z,95711.00
2024-02-29T09:29:13.317Z,95711.00
2024-02-29T09:30:13.231Z,95710.00
2024-02-29T09:31:13.313Z,95710.00
2024-02-29T09:32:13.241Z,95709.00
2024-02-29T09:33:13.321Z,95708.00
2024-02-29T09:34:13.263Z,95707.00
2024-02-29T09:35:13.245Z,95707.00
2024-02-29T09:36:13.236Z,95705.00
2024-02-29T09:37:13.327Z,95701.00
2024-02-29T09:38:13.267Z,95698.00
2024-02-29T09:39:13.257Z,95698.00
2024-02-29T09:40:13.272Z,95696.00
2024-02-29T09:41:25.652Z,95691.00
2024-02-29T09:42:15.409Z,95690.00
2024-02-29T09:43:13.562Z,95690.00
2024-02-29T09:44:13.526Z,95685.00
2024-02-29T09:45:13.571Z,95682.00
2024-02-29T09:46:13.690Z,95678.00
2024-02-29T09:47:13.704Z,95677.00
2024-02-29T09:48:13.744Z,95673.00
2024-02-29T09:49:13.813Z,95674.00
2024-02-29T09:50:13.841Z,95673.00
2024-02-29T09:51:15.997Z,95671.00
2024-02-29T09:52:14.120Z,95670.00
2024-02-29T09:53:13.992Z,95667.00
2024-02-29T09:54:14.038Z,95666.00
2024-02-29T09:55:14.136Z,95664.00
2024-02-29T09:56:14.168Z,95663.00
2024-02-29T09:57:14.191Z,95662.00
2024-02-29T09:58:14.313Z,95661.00
2024-02-29T09:59:14.270Z,95662.00
2024-02-29T10:00:14.332Z,95660.00
2024-02-29T10:01:14.495Z,95658.00
2024-02-29T10:02:14.437Z,95659.00
2024-02-29T10:03:14.401Z,95657.00
2024-02-29T10:04:14.508Z,95658.00
2024-02-29T10:05:14.449Z,95655.00
2024-02-29T10:06:14.474Z,95653.00
2024-02-29T10:07:14.550Z,95653.00
2024-02-29T10:08:14.529Z,95650.00
2024-02-29T10:09:14.566Z,95648.00
2024-02-29T10:10:14.656Z,95645.00
2024-02-29T10:11:14.663Z,95646.00
2024-02-29T10:12:14.629Z,95642.00
2024-02-29T10:13:14.711Z,95640.00
2024-02-29T10:14:14.617Z,95639.00
2024-02-29T10:15:14.637Z,95637.00
2024-02-29T10:16:14.837Z,95635.00
2024-02-29T10:17:14.657Z,95637.00
2024-02-29T10:18:14.676Z,95635.00
2024-02-29T10:19:14.714Z,95635.00
2024-02-29T10:20:14.683Z,95632.00
2024-02-29T10:21:14.680Z,95631.00
2024-02-29T10:22:14.711Z,95629.00
2024-02-29T10:23:14.736Z,95628.00
2024-02-29T10:24:14.720Z,95626.00
2024-02-29T10:25:14.829Z,95622.00
2024-02-29T10:26:14.772Z,95622.00
2024-02-29T10:27:14.894Z,95622.00
2024-02-29T10:28:14.914Z,95619.00
2024-02-29T10:29:14.956Z,95615.00
2024-02-29T10:30:15.032Z,95614.00
2024-02-29T10:31:15.187Z,95616.00
2024-02-29T10:32:15.142Z,95612.00
2024-02-29T10:33:15.202Z,95612.00
2024-02-29T10:34:15.392Z,95611.00
2024-02-29T10:35:15.339Z,95611.00
2024-02-29T10:36:15.381Z,95610.00
2024-02-29T10:37:15.440Z,95609.00
2024-02-29T10:38:15.486Z,95604.00
2024-02-29T10:39:15.564Z,95603.00
2024-02-29T10:40:15.669Z,95603.00
2024-02-29T10:41:15.688Z,95600.00
2024-02-29T10:42:15.765Z,95596.00
2024-02-29T10:43:15.940Z,95596.00
2024-02-29T10:44:15.890Z,95593.00
2024-02-29T10:45:15.933Z,95590.00
2024-02-29T10:46:16.069Z,95588.00
2024-02-29T10:47:16.016Z,95585.00
2024-02-29T10:48:16.035Z,95585.00
2024-02-29T10:49:16.093Z,95581.00
2024-02-29T10:50:16.037Z,95578.00
2024-02-29T10:51:16.056Z,95575.00
2024-02-29T10:52:16.142Z,95576.00
2024-02-29T10:53:16.111Z,95573.00
2024-02-29T10:54:16.111Z,95575.00
2024-02-29T10:55:16.206Z,95574.00
2024-02-29T10:56:16.115Z,95571.00
2024-02-29T10:57:16.140Z,95571.00
2024-02-29T10:58:16.189Z,95569.00
2024-02-29T10:59:16.178Z,95569.00
2024-02-29T11:00:21.238Z,95565.00
2024-02-29T11:01:16.311Z,95564.00
2024-02-29T11:02:16.221Z,95561.00
2024-02-29T11:03:16.232Z,95559.00
2024-02-29T11:04:16.316Z,95558.00
2024-02-29T11:05:16.236Z,95556.00
2024-02-29T11:06:16.228Z,95556.00
2024-02-29T11:07:16.281Z,95552.00
2024-02-29T11:08:16.216Z,95554.00
2024-02-29T11:09:16.230Z,95551.00
2024-02-29T11:10:16.289Z,95549.00
2024-02-29T11:11:16.377Z,95548.00
2024-02-29T11:12:16.216Z,95545.00
2024-02-29T11:13:16.264Z,95544.00
2024-02-29T11:14:16.334Z,95544.00
2024-02-29T11:15:16.244Z,95539.00
2024-02-29T11:16:16.261Z,95539.00
2024-02-29T11:17:16.328Z,95536.00
2024-02-29T11:18:16.270Z,95537.00
2024-02-29T11:19:16.468Z,95534.00
2024-02-29T11:20:16.299Z,95532.00
2024-02-29T11:21:16.386Z,95532.00
2024-02-29T11:22:16.594Z,95529.00
2024-02-29T11:23:16.514Z,95525.00
2024-02-29T11:24:16.578Z,95524.00
2024-02-29T11:25:16.701Z,95523.00
2024-02-29T11:26:16.720Z,95518.00
2024-02-29T11:27:16.799Z,95517.00
2024-02-29T11:28:16.943Z,95516.00
2024-02-29T11:29:16.911Z,95514.00
2024-02-29T11:30:16.911Z,95512.00
2024-02-29T11:31:17.146Z,95510.00
2024-02-29T11:32:17.048Z,95507.00
2024-02-29T11:33:17.079Z,95505.00
2024-02-29T11:34:17.017Z,95505.00
2024-02-29T11:35:17.632Z,95503.00
2024-02-29T11:36:17.029Z,95501.00
2024-02-29T11:37:17.099Z,95501.00
2024-02-29T11:38:25.085Z,95498.00
2024-02-29T11:39:18.070Z,95495.00
2024-02-29T11:40:17.249Z,95492.00
2024-02-29T11:41:17.080Z,95491.00
2024-02-29T11:42:17.060Z,95486.00
2024-02-29T11:43:17.155Z,95484.00
2024-02-29T11:44:17.083Z,95484.00
2024-02-29T11:45:17.089Z,95480.00